createdAt,value
2019-02-03T00:05:34.503Z,4.20
2019-02-03T00:15:39.621Z,4.17
2019-02-03T00:25:44.860Z,4.30
2019-02-03T00:35:49.966Z,3.63
2019-02-03T00:45:55.096Z,4.40
2019-02-03T00:56:00.215Z,4.13
2019-02-03T01:06:06.494Z,3.83
2019-02-03T01:16:12.787Z,4.00
2019-02-03T01:26:17.913Z,3.73
2019-02-03T01:36:23.301Z,4.07
2019-02-03T01:46:28.428Z,3.50
2019-02-03T01:56:33.590Z,4.20
2019-02-03T04:03:52.313Z,4.40
2019-02-03T04:13:57.459Z,3.47
2019-02-03T04:24:02.540Z,3.83
2019-02-03T04:34:07.647Z,3.80
2019-02-03T04:44:12.784Z,3.63
2019-02-03T04:54:17.915Z,3.40
2019-02-03T05:04:23.023Z,3.30
2019-02-03T05:14:28.141Z,3.60
2019-02-03T05:24:33.264Z,3.47
2019-02-03T05:34:38.385Z,3.57
2019-02-03T05:44:43.527Z,3.30
2019-02-03T05:55:07.544Z,3.80
2019-02-03T06:05:13.043Z,3.70
2019-02-03T06:15:18.184Z,3.40
2019-02-03T06:25:23.322Z,3.17
2019-02-03T06:35:28.817Z,3.47
2019-02-03T06:45:52.897Z,4.10
2019-02-03T06:55:58.292Z,3.33
2019-02-03T07:06:03.403Z,3.57
2019-02-03T07:16:08.569Z,3.57
2019-02-03T07:26:13.667Z,4.00
2019-02-03T07:36:18.784Z,3.93
2019-02-03T07:46:23.920Z,3.50
2019-02-03T07:56:29.515Z,3.13
2019-02-03T08:06:34.611Z,3.47
2019-02-03T08:16:39.721Z,3.27
2019-02-03T08:26:44.849Z,3.10
2019-02-03T08:36:50.046Z,3.10
2019-02-03T08:46:55.609Z,3.40
2019-02-03T08:57:00.810Z,3.30
2019-02-03T09:07:06.102Z,3.40
2019-02-03T09:17:11.923Z,3.60
2019-02-03T09:27:17.149Z,3.40
2019-02-03T09:37:22.264Z,3.57
2019-02-03T09:47:27.402Z,3.50
2019-02-03T09:57:32.514Z,4.70
2019-02-03T10:07:37.730Z,4.50
2019-02-03T10:17:42.900Z,4.20
2019-02-03T10:27:48.200Z,4.40
2019-02-03T10:38:03.314Z,4.10
2019-02-03T10:48:09.766Z,3.80
2019-02-03T10:58:15.317Z,4.40
2019-02-03T11:08:20.427Z,4.10
2019-02-03T11:18:25.543Z,4.67
2019-02-03T11:28:30.691Z,5.17
2019-02-03T11:38:36.113Z,4.30
2019-02-03T11:48:41.477Z,4.30
2019-02-03T11:58:46.663Z,4.33
2019-02-03T12:08:52.117Z,4.07
2019-02-03T12:18:57.357Z,4.70
2019-02-03T12:29:02.827Z,4.50
2019-02-03T12:39:09.984Z,5.27
2019-02-03T12:49:16.032Z,4.60
2019-02-03T12:59:21.152Z,4.63
2019-02-03T13:09:26.477Z,4.00
2019-02-03T13:19:31.604Z,3.70
2019-02-03T13:29:36.825Z,4.20
2019-02-03T13:39:42.259Z,4.60
2019-02-03T13:49:47.617Z,4.40
2019-02-03T13:59:53.304Z,11.43
2019-02-03T14:09:58.849Z,9.03
2019-02-03T14:20:04.355Z,9.80
2019-02-03T14:30:13.974Z,8.30
2019-02-03T14:40:19.234Z,8.47
2019-02-03T14:50:24.843Z,7.50
2019-02-03T15:00:32.686Z,8.47
2019-02-03T15:10:37.846Z,8.47
2019-02-03T15:20:42.969Z,7.37
2019-02-03T15:30:48.491Z,6.90
2019-02-03T15:40:53.625Z,7.37
2019-02-03T15:50:58.738Z,7.57
2019-02-03T16:01:03.988Z,7.37
2019-02-03T16:11:09.372Z,7.20
2019-02-03T16:21:14.499Z,7.80
2019-02-03T16:31:19.611Z,7.33
2019-02-03T16:41:24.745Z,7.07
2019-02-03T16:51:29.913Z,6.97
2019-02-03T17:01:34.988Z,7.63
2019-02-03T17:11:40.182Z,6.73
2019-02-03T17:21:45.353Z,6.60
2019-02-03T17:31:50.556Z,6.07
2019-02-03T17:41:55.754Z,7.10
2019-02-03T17:52:00.943Z,6.80
2019-02-03T18:02:07.725Z,6.83
2019-02-03T18:12:13.163Z,6.77
2019-02-03T18:22:18.281Z,6.70
2019-02-03T18:32:23.385Z,6.40
2019-02-03T18:42:28.617Z,7.47
2019-02-03T18:52:33.779Z,6.40
2019-02-03T19:02:38.941Z,7.50
2019-02-03T19:12:44.059Z,6.97
2019-02-03T19:22:49.404Z,7.70
2019-02-03T19:32:54.506Z,7.00
2019-02-03T19:42:59.669Z,7.40
2019-02-03T19:53:04.961Z,6.10
2019-02-03T20:03:10.102Z,6.27
2019-02-03T20:13:15.222Z,7.10
2019-02-03T20:23:20.331Z,6.83
2019-02-03T20:33:25.444Z,6.80
2019-02-03T20:43:30.585Z,6.97
2019-02-03T20:53:35.696Z,7.30
2019-02-03T21:03:40.803Z,7.93
2019-02-03T21:13:45.928Z,7.80
2019-02-03T21:23:51.038Z,6.93
2019-02-03T21:33:56.167Z,7.87
2019-02-03T21:44:01.733Z,6.90
2019-02-03T21:54:06.835Z,7.27
2019-02-03T22:04:11.954Z,7.37
2019-02-03T22:14:17.058Z,7.40
2019-02-03T22:24:22.156Z,6.83
2019-02-03T22:34:27.257Z,7.47
2019-02-03T22:44:33.055Z,6.90
2019-02-03T22:54:38.169Z,6.67
2019-02-03T23:04:43.270Z,6.63
2019-02-03T23:14:48.483Z,6.70
2019-02-03T23:24:53.664Z,6.73
2019-02-03T23:34:59.247Z,7.17
2019-02-03T23:45:05.242Z,7.13
2019-02-03T23:55:10.350Z,6.00
